createdAt,value
2018-10-01T00:00:47.552Z,11.10
2018-10-01T00:03:15.834Z,11.27
2018-10-01T00:05:44.224Z,11.23
2018-10-01T00:08:12.745Z,10.23
2018-10-01T00:10:41.195Z,10.60
2018-10-01T00:13:09.633Z,10.40
2018-10-01T00:15:38.154Z,11.50
2018-10-01T00:18:06.473Z,10.70
2018-10-01T00:20:40.108Z,11.30
2018-10-01T00:23:08.414Z,11.03
2018-10-01T00:25:36.866Z,10.80
2018-10-01T00:28:05.328Z,11.70
2018-10-01T00:30:33.720Z,11.07
2018-10-01T00:33:02.383Z,11.43
2018-10-01T00:35:30.797Z,11.03
2018-10-01T00:37:59.192Z,10.77
2018-10-01T00:40:27.479Z,11.27
2018-10-01T00:42:55.983Z,11.10
2018-10-01T00:45:24.290Z,11.47
2018-10-01T00:47:52.737Z,10.77
2018-10-01T00:50:21.121Z,11.20
2018-10-01T00:52:49.428Z,10.70
2018-10-01T00:55:17.764Z,10.07
2018-10-01T00:57:46.182Z,9.00
2018-10-01T01:00:14.506Z,9.20
2018-10-01T01:02:42.882Z,9.27
2018-10-01T01:05:11.186Z,8.57
2018-10-01T01:07:39.596Z,8.57
2018-10-01T01:10:07.893Z,9.23
2018-10-01T01:12:36.436Z,9.50
2018-10-01T01:15:04.862Z,9.07
2018-10-01T01:17:33.252Z,9.57
2018-10-01T01:20:01.710Z,10.73
2018-10-01T01:22:30.178Z,9.93
2018-10-01T01:24:58.516Z,10.40
2018-10-01T01:27:27.152Z,10.13
2018-10-01T01:29:55.520Z,10.10
2018-10-01T01:32:24.338Z,10.00
2018-10-01T01:34:52.672Z,10.07
2018-10-01T01:37:21.373Z,10.37
2018-10-01T01:39:49.831Z,10.30
2018-10-01T01:42:18.238Z,10.40
2018-10-01T01:44:46.585Z,10.83
2018-10-01T01:47:15.098Z,10.43
2018-10-01T01:49:43.471Z,10.53
2018-10-01T01:52:11.880Z,10.53
2018-10-01T01:54:40.207Z,10.03
2018-10-01T01:57:08.595Z,10.57
2018-10-01T01:59:36.930Z,10.73
2018-10-01T02:02:05.327Z,10.67
2018-10-01T02:04:33.610Z,10.57
2018-10-01T02:07:01.974Z,10.80
2018-10-01T02:09:30.305Z,10.60
2018-10-01T02:12:05.359Z,10.80
2018-10-01T02:14:33.776Z,10.20
2018-10-01T02:17:02.430Z,10.50
2018-10-01T02:19:35.411Z,11.00
2018-10-01T02:22:04.250Z,10.57
2018-10-01T02:24:34.532Z,11.13
2018-10-01T02:27:03.035Z,11.40
2018-10-01T02:29:31.623Z,11.77
2018-10-01T02:32:00.144Z,10.97
2018-10-01T02:34:28.714Z,10.37
2018-10-01T02:36:57.287Z,9.90
2018-10-01T02:39:25.911Z,10.73
2018-10-01T02:41:56.742Z,9.27
2018-10-01T02:44:25.393Z,10.27
2018-10-01T02:46:53.961Z,9.80
2018-10-01T02:49:22.439Z,9.00
2018-10-01T02:51:58.268Z,8.83
2018-10-01T02:54:53.685Z,8.67
2018-10-01T02:57:36.779Z,9.10
2018-10-01T03:03:24.199Z,7.93
2018-10-01T03:05:52.910Z,8.63
2018-10-01T03:08:22.000Z,8.30
2018-10-01T03:10:50.683Z,7.70
2018-10-01T03:13:19.364Z,7.47
2018-10-01T03:15:48.075Z,7.30
2018-10-01T03:18:17.827Z,7.83
2018-10-01T03:20:46.654Z,7.90
2018-10-01T03:23:15.332Z,6.60
2018-10-01T03:25:44.098Z,6.67
2018-10-01T03:28:14.005Z,6.10
2018-10-01T03:30:43.084Z,5.90
2018-10-01T03:33:11.935Z,6.90
2018-10-01T03:35:40.630Z,6.27
2018-10-01T03:38:09.075Z,6.13
2018-10-01T03:40:37.549Z,6.27
2018-10-01T03:43:06.071Z,6.10
2018-10-01T03:45:34.802Z,6.00
2018-10-01T03:48:03.430Z,5.93
2018-10-01T03:50:31.927Z,6.20
2018-10-01T03:53:12.345Z,5.83
2018-10-01T03:55:41.061Z,5.60
2018-10-01T03:58:09.603Z,6.00
2018-10-01T04:00:58.080Z,5.90
2018-10-01T04:03:26.471Z,5.50
2018-10-01T04:05:59.433Z,5.63
2018-10-01T04:08:27.826Z,5.70
2018-10-01T04:10:56.363Z,5.20
2018-10-01T04:13:25.328Z,5.47
2018-10-01T04:15:53.777Z,5.37
2018-10-01T04:18:22.294Z,5.60
2018-10-01T04:20:50.749Z,4.73
2018-10-01T04:23:19.179Z,6.10
2018-10-01T04:25:50.995Z,5.57
2018-10-01T04:28:19.484Z,6.00
2018-10-01T04:30:47.942Z,6.23
2018-10-01T04:39:03.100Z,6.00
2018-10-01T04:41:31.553Z,6.00
2018-10-01T04:44:00.198Z,5.73
2018-10-01T04:46:28.621Z,6.20
2018-10-01T04:48:57.090Z,5.60
2018-10-01T04:51:25.522Z,6.27
2018-10-01T04:53:54.123Z,6.23
2018-10-01T04:56:22.657Z,5.93
2018-10-01T05:01:55.731Z,5.67
2018-10-01T05:04:24.056Z,6.43
2018-10-01T05:06:52.616Z,6.40
2018-10-01T05:09:21.248Z,5.80
2018-10-01T05:11:49.888Z,6.57
2018-10-01T05:14:20.731Z,6.50
2018-10-01T05:16:49.231Z,6.40
2018-10-01T05:19:17.734Z,5.97
2018-10-01T05:21:46.305Z,6.20
2018-10-01T05:24:14.825Z,6.33
2018-10-01T05:26:43.511Z,6.33
2018-10-01T05:29:12.041Z,5.87
2018-10-01T05:31:40.754Z,6.30
2018-10-01T05:34:09.677Z,5.90
2018-10-01T05:36:38.472Z,6.80
2018-10-01T05:39:10.128Z,6.57
2018-10-01T05:41:39.053Z,6.37
2018-10-01T05:44:07.769Z,6.57
2018-10-01T05:46:36.495Z,6.40
2018-10-01T05:49:05.216Z,5.77
2018-10-01T05:51:33.964Z,6.83
2018-10-01T05:54:02.583Z,6.50
2018-10-01T05:56:31.194Z,7.90
2018-10-01T05:58:59.869Z,7.33
2018-10-01T06:01:33.396Z,7.83
2018-10-01T06:04:02.289Z,8.47
2018-10-01T06:06:30.843Z,8.50
2018-10-01T06:08:59.497Z,9.23
2018-10-01T06:11:28.505Z,10.50
2018-10-01T06:13:57.127Z,10.13
2018-10-01T06:16:26.891Z,10.63
2018-10-01T06:18:55.820Z,10.43
2018-10-01T06:21:24.556Z,10.80
2018-10-01T06:23:53.981Z,11.13
2018-10-01T06:26:22.705Z,11.63
2018-10-01T06:28:53.330Z,11.90
2018-10-01T06:31:22.822Z,14.33
2018-10-01T06:33:51.715Z,11.80
2018-10-01T06:36:22.575Z,12.47
2018-10-01T06:38:53.018Z,12.57
2018-10-01T06:41:27.647Z,12.93
2018-10-01T06:43:56.576Z,12.33
2018-10-01T06:46:25.150Z,13.27
2018-10-01T06:48:53.660Z,14.43
2018-10-01T06:51:22.261Z,13.90
2018-10-01T06:56:44.534Z,14.40
2018-10-01T06:59:13.106Z,15.30
2018-10-01T07:01:41.751Z,15.37
2018-10-01T07:04:10.392Z,15.20
2018-10-01T07:06:40.413Z,16.27
2018-10-01T07:09:10.809Z,16.40
2018-10-01T07:11:40.364Z,16.57
2018-10-01T07:14:08.936Z,15.90
2018-10-01T07:16:43.283Z,16.23
2018-10-01T07:19:11.775Z,16.17
2018-10-01T07:21:40.234Z,16.77
2018-10-01T07:24:08.702Z,16.40
2018-10-01T07:26:37.388Z,17.83
2018-10-01T07:29:06.053Z,16.60
2018-10-01T07:31:34.639Z,16.57
2018-10-01T07:34:03.116Z,16.63
2018-10-01T07:36:32.720Z,17.00
2018-10-01T07:39:01.354Z,16.40
2018-10-01T07:41:29.827Z,16.43
2018-10-01T07:44:15.195Z,16.10
2018-10-01T07:46:43.846Z,16.60
2018-10-01T07:49:12.655Z,17.17
2018-10-01T07:51:41.340Z,17.23
2018-10-01T07:54:10.278Z,16.10
2018-10-01T07:56:38.793Z,16.13
2018-10-01T07:59:28.768Z,16.40
2018-10-01T08:01:57.439Z,16.13
2018-10-01T08:04:25.978Z,16.67
2018-10-01T08:06:54.739Z,17.90
2018-10-01T08:09:23.354Z,17.73
2018-10-01T08:11:52.126Z,17.20
2018-10-01T08:14:20.743Z,16.63
2018-10-01T08:16:49.302Z,16.30
2018-10-01T08:19:17.837Z,16.57
2018-10-01T08:21:46.317Z,16.23
2018-10-01T08:30:00.548Z,17.23
2018-10-01T08:32:50.570Z,12.27
2018-10-01T08:35:19.180Z,15.43
2018-10-01T08:37:47.683Z,15.50
2018-10-01T08:40:16.130Z,15.70
2018-10-01T08:42:44.855Z,17.03
2018-10-01T08:45:25.764Z,16.97
2018-10-01T08:47:55.329Z,15.00
2018-10-01T08:51:27.907Z,15.97
2018-10-01T08:54:08.217Z,12.93
2018-10-01T08:56:36.653Z,14.10
2018-10-01T08:59:11.452Z,16.47
2018-10-01T09:01:46.723Z,14.10
2018-10-01T09:04:15.285Z,15.03
2018-10-01T09:06:51.137Z,16.23
2018-10-01T09:09:19.855Z,15.77
2018-10-01T09:11:58.325Z,18.00
2018-10-01T09:14:26.926Z,15.77
2018-10-01T09:16:55.603Z,17.73
2018-10-01T09:19:24.205Z,17.17
2018-10-01T09:21:52.660Z,15.83
2018-10-01T09:24:21.225Z,16.20
2018-10-01T09:26:49.861Z,16.20
2018-10-01T09:29:18.486Z,16.47
2018-10-01T09:31:47.185Z,16.57
2018-10-01T09:34:15.750Z,15.93
2018-10-01T09:36:44.273Z,16.17
2018-10-01T09:39:12.817Z,15.17
2018-10-01T09:41:41.410Z,15.67
2018-10-01T09:44:10.107Z,16.77
2018-10-01T09:46:38.997Z,15.80
2018-10-01T09:49:07.579Z,16.53
2018-10-01T09:51:36.147Z,15.53
2018-10-01T09:54:04.604Z,15.43
2018-10-01T09:56:33.928Z,15.70
2018-10-01T09:59:02.326Z,15.70
2018-10-01T10:01:30.781Z,16.03
2018-10-01T10:03:59.259Z,16.63
2018-10-01T10:06:27.747Z,15.93
2018-10-01T10:08:56.186Z,15.57
2018-10-01T10:11:26.155Z,14.13
2018-10-01T10:13:55.345Z,13.80
2018-10-01T10:16:25.751Z,14.00
2018-10-01T10:18:54.271Z,13.87
2018-10-01T10:21:22.823Z,13.00
2018-10-01T10:23:51.250Z,13.23
2018-10-01T10:29:12.770Z,13.10
2018-10-01T10:31:41.193Z,12.80
2018-10-01T10:34:09.726Z,12.90
2018-10-01T10:36:38.035Z,13.50
2018-10-01T10:39:11.219Z,13.03
2018-10-01T10:41:39.800Z,12.83
2018-10-01T10:44:08.205Z,12.07
2018-10-01T10:46:36.580Z,11.97
2018-10-01T10:49:06.090Z,10.60
2018-10-01T10:51:34.701Z,10.67
2018-10-01T10:54:03.275Z,11.07
2018-10-01T10:56:31.757Z,10.47
2018-10-01T10:59:00.234Z,10.67
2018-10-01T11:01:28.699Z,9.67
2018-10-01T11:03:59.260Z,10.77
2018-10-01T11:06:27.703Z,8.87
2018-10-01T11:08:56.263Z,7.80
2018-10-01T11:11:25.095Z,8.03
2018-10-01T11:14:03.370Z,8.50
2018-10-01T11:16:31.961Z,7.63
2018-10-01T11:19:00.968Z,7.17
2018-10-01T11:21:29.490Z,7.87
2018-10-01T11:23:58.013Z,8.40
2018-10-01T11:26:26.546Z,7.50
2018-10-01T11:28:55.170Z,8.90
2018-10-01T11:31:23.699Z,8.33
2018-10-01T11:33:52.270Z,9.50
2018-10-01T11:36:21.414Z,8.20
2018-10-01T11:38:50.315Z,8.93
2018-10-01T11:41:18.795Z,9.03
2018-10-01T11:43:47.181Z,8.27
2018-10-01T11:46:15.884Z,7.17
2018-10-01T11:48:44.399Z,8.77
2018-10-01T11:51:13.041Z,7.83
2018-10-01T11:53:41.465Z,6.53
2018-10-01T11:56:09.875Z,6.37
2018-10-01T11:58:38.386Z,6.60
2018-10-01T12:01:06.777Z,6.80
2018-10-01T12:03:36.329Z,6.63
2018-10-01T12:06:04.678Z,6.80
2018-10-01T12:08:33.158Z,6.60
2018-10-01T12:13:58.132Z,6.77
2018-10-01T12:16:26.851Z,6.53
2018-10-01T12:19:10.067Z,7.00
2018-10-01T12:21:38.505Z,6.43
2018-10-01T12:24:06.981Z,6.27
2018-10-01T12:26:35.332Z,5.67
2018-10-01T12:29:03.799Z,5.40
2018-10-01T12:31:32.288Z,5.30
2018-10-01T12:34:00.816Z,5.30
2018-10-01T12:36:29.146Z,5.30
2018-10-01T12:38:57.616Z,4.50
2018-10-01T12:41:26.188Z,3.93
2018-10-01T12:43:54.506Z,3.67
2018-10-01T12:46:23.126Z,5.30
2018-10-01T12:48:51.557Z,4.27
2018-10-01T12:51:20.160Z,3.73
2018-10-01T12:53:49.794Z,3.17
2018-10-01T12:56:18.348Z,3.33
2018-10-01T12:58:47.491Z,3.00
2018-10-01T13:01:15.915Z,3.57
2018-10-01T13:03:44.626Z,3.30
2018-10-01T13:06:13.091Z,3.57
2018-10-01T13:08:41.885Z,3.03
2018-10-01T13:11:11.052Z,2.80
2018-10-01T13:13:41.272Z,3.10
2018-10-01T13:16:15.181Z,2.27
2018-10-01T13:18:45.332Z,2.87
2018-10-01T13:21:16.350Z,2.40
2018-10-01T13:23:46.265Z,2.30
2018-10-01T13:26:15.041Z,2.33
2018-10-01T13:28:43.590Z,2.93
2018-10-01T13:31:12.098Z,3.00
2018-10-01T13:33:40.638Z,2.70
2018-10-01T13:36:09.205Z,2.43
2018-10-01T13:38:42.296Z,2.80
2018-10-01T13:41:10.723Z,2.80
2018-10-01T13:43:39.545Z,2.63
2018-10-01T13:46:11.588Z,2.53
2018-10-01T13:48:40.226Z,2.37
2018-10-01T13:51:08.759Z,2.60
2018-10-01T13:53:37.456Z,3.13
2018-10-01T13:56:05.863Z,3.10
2018-10-01T13:58:40.071Z,2.50
2018-10-01T14:01:08.693Z,2.63
2018-10-01T14:03:37.211Z,2.20
2018-10-01T14:06:05.842Z,1.47
2018-10-01T14:08:36.969Z,2.47
2018-10-01T14:11:10.846Z,1.57
2018-10-01T14:13:58.467Z,1.80
2018-10-01T14:42:41.049Z,2.25
2018-10-01T14:45:20.796Z,2.30
2018-10-01T14:56:41.062Z,2.12
2018-10-01T14:59:20.176Z,15.65
2018-10-01T15:01:50.768Z,27.07
2018-10-01T15:04:20.275Z,3.72
2018-10-01T15:06:55.520Z,12.55
2018-10-01T15:09:28.733Z,2.47
2018-10-01T15:11:59.894Z,2.12
2018-10-01T15:14:28.360Z,2.12
2018-10-01T15:16:56.936Z,2.47
2018-10-01T15:19:25.592Z,2.22
2018-10-01T15:21:54.048Z,2.17
2018-10-01T15:24:23.581Z,2.25
2018-10-01T15:26:52.024Z,2.77
2018-10-01T15:29:20.768Z,2.57
2018-10-01T15:31:50.600Z,2.27
2018-10-01T15:34:19.253Z,2.20
2018-10-01T15:36:47.745Z,3.07
2018-10-01T15:39:16.986Z,2.77
2018-10-01T15:41:46.437Z,2.27
2018-10-01T15:44:15.098Z,1.40
2018-10-01T15:46:43.471Z,1.20
2018-10-01T15:49:11.805Z,1.30
2018-10-01T15:51:41.050Z,1.30
2018-10-01T15:54:09.606Z,1.10
2018-10-01T15:56:38.052Z,1.27
2018-10-01T15:59:06.623Z,1.60
2018-10-01T16:01:35.176Z,1.77
2018-10-01T16:04:03.727Z,1.10
2018-10-01T16:06:32.109Z,1.80
2018-10-01T16:09:00.629Z,1.50
2018-10-01T16:11:29.136Z,1.13
2018-10-01T16:13:57.780Z,1.27
2018-10-01T16:16:28.602Z,1.20
2018-10-01T16:18:57.437Z,1.40
2018-10-01T16:21:26.523Z,1.70
2018-10-01T16:23:55.166Z,1.27
2018-10-01T16:26:24.334Z,1.20
2018-10-01T16:28:53.393Z,1.70
2018-10-01T16:31:22.499Z,1.33
2018-10-01T16:33:50.904Z,1.97
2018-10-01T16:36:19.702Z,1.60
2018-10-01T16:38:48.332Z,14.00
2018-10-01T16:41:16.751Z,16.00
2018-10-01T16:43:45.377Z,1.70
2018-10-01T16:46:13.821Z,1.77
2018-10-01T16:48:42.238Z,1.57
2018-10-01T16:51:10.717Z,7.20
2018-10-01T16:53:40.031Z,1.70
2018-10-01T16:56:13.721Z,2.00
2018-10-01T16:58:42.142Z,2.00
2018-10-01T17:01:12.808Z,1.60
2018-10-01T17:03:41.313Z,1.63
2018-10-01T17:06:09.846Z,1.83
2018-10-01T17:08:40.396Z,1.60
2018-10-01T17:11:08.878Z,1.90
2018-10-01T17:13:37.303Z,1.70
2018-10-01T17:16:05.972Z,3.50
2018-10-01T17:18:34.802Z,2.10
2018-10-01T17:21:03.542Z,2.57
2018-10-01T17:23:36.344Z,2.33
2018-10-01T17:26:04.899Z,2.97
2018-10-01T17:28:35.535Z,3.07
2018-10-01T17:31:04.269Z,2.60
2018-10-01T17:33:32.741Z,2.20
2018-10-01T17:36:03.355Z,1.53
2018-10-01T17:38:32.028Z,1.93
2018-10-01T17:41:00.816Z,1.47
2018-10-01T17:43:29.214Z,2.07
2018-10-01T17:45:57.702Z,1.50
2018-10-01T17:48:26.168Z,1.63
2018-10-01T17:50:54.669Z,1.27
2018-10-01T17:53:23.192Z,1.40
2018-10-01T17:55:51.679Z,1.00
2018-10-01T17:58:31.125Z,1.17
2018-10-01T18:00:59.663Z,1.30
2018-10-01T18:03:28.185Z,1.00
2018-10-01T18:05:56.699Z,1.50
2018-10-01T18:08:25.055Z,1.63
2018-10-01T18:10:53.636Z,1.77
2018-10-01T18:13:30.155Z,1.77
2018-10-01T18:15:58.792Z,1.93
2018-10-01T18:18:27.247Z,1.50
2018-10-01T18:20:55.777Z,1.40
2018-10-01T18:23:24.795Z,1.60
2018-10-01T18:25:53.189Z,1.63
2018-10-01T18:28:21.632Z,1.40
2018-10-01T18:30:50.150Z,1.20
2018-10-01T18:33:18.606Z,1.30
2018-10-01T18:35:47.952Z,1.30
2018-10-01T18:38:28.058Z,1.10
2018-10-01T18:40:56.573Z,1.50
2018-10-01T18:43:26.486Z,1.40
2018-10-01T18:45:54.859Z,1.53
2018-10-01T18:48:23.503Z,1.40
2018-10-01T18:50:51.898Z,1.50
2018-10-01T18:53:20.416Z,1.43
2018-10-01T18:55:48.948Z,1.30
2018-10-01T18:58:17.325Z,1.03
2018-10-01T19:00:45.754Z,1.30
2018-10-01T19:03:14.241Z,1.20
2018-10-01T19:05:42.896Z,1.97
2018-10-01T19:11:09.490Z,1.67
2018-10-01T19:13:38.033Z,1.50
2018-10-01T19:16:06.499Z,1.30
2018-10-01T19:18:34.929Z,1.50
2018-10-01T19:21:03.324Z,1.70
2018-10-01T19:23:31.720Z,1.67
2018-10-01T19:26:04.335Z,1.77
2018-10-01T19:28:32.791Z,1.80
2018-10-01T19:31:02.691Z,2.13
2018-10-01T19:33:31.390Z,2.20
2018-10-01T19:36:04.431Z,1.77
2018-10-01T19:38:32.992Z,1.60
2018-10-01T19:41:01.439Z,2.00
2018-10-01T19:43:30.186Z,2.30
2018-10-01T19:45:59.099Z,10.27
2018-10-01T19:51:08.679Z,5.20
2018-10-01T19:53:37.410Z,2.00
2018-10-01T19:56:05.807Z,1.67
2018-10-01T19:58:34.387Z,1.57
2018-10-01T20:01:02.693Z,1.80
2018-10-01T20:03:31.297Z,2.13
2018-10-01T20:05:59.570Z,2.10
2018-10-01T20:08:28.052Z,1.90
2018-10-01T20:10:56.481Z,2.33
2018-10-01T20:13:24.758Z,1.93
2018-10-01T20:15:52.996Z,2.03
2018-10-01T20:18:21.348Z,1.90
2018-10-01T20:20:49.680Z,1.80
2018-10-01T20:23:18.037Z,1.90
2018-10-01T20:25:46.336Z,2.10
2018-10-01T20:28:14.755Z,1.70
2018-10-01T20:30:43.098Z,1.93
2018-10-01T20:33:11.432Z,1.87
2018-10-01T20:35:40.131Z,2.20
2018-10-01T20:38:08.378Z,2.07
2018-10-01T20:40:36.599Z,2.07
2018-10-01T20:43:05.251Z,2.10
2018-10-01T20:45:33.545Z,2.03
2018-10-01T20:48:02.068Z,2.33
2018-10-01T20:50:30.244Z,2.70
2018-10-01T20:52:58.757Z,2.30
2018-10-01T20:55:26.914Z,2.20
2018-10-01T20:57:55.311Z,2.40
2018-10-01T21:00:23.725Z,2.40
2018-10-01T21:02:54.083Z,2.57
2018-10-01T21:05:22.580Z,2.97
2018-10-01T21:07:51.104Z,2.57
2018-10-01T21:10:20.204Z,2.23
2018-10-01T21:12:49.010Z,2.27
2018-10-01T21:15:17.530Z,2.90
2018-10-01T21:17:46.196Z,2.73
2018-10-01T21:20:14.532Z,2.70
2018-10-01T21:22:43.120Z,2.43
2018-10-01T21:25:11.420Z,2.30
2018-10-01T21:27:39.744Z,2.47
2018-10-01T21:30:08.049Z,2.50
2018-10-01T21:32:36.403Z,2.83
2018-10-01T21:35:04.744Z,2.93
2018-10-01T21:37:32.987Z,2.37
2018-10-01T21:40:05.992Z,2.07
2018-10-01T21:42:34.468Z,2.37
2018-10-01T21:45:04.550Z,2.20
2018-10-01T21:47:33.202Z,2.17
2018-10-01T21:50:01.530Z,2.50
2018-10-01T21:52:30.328Z,2.20
2018-10-01T21:54:59.065Z,2.87
2018-10-01T21:57:27.373Z,2.37
2018-10-01T21:59:55.738Z,2.83
2018-10-01T22:02:24.056Z,2.67
2018-10-01T22:04:52.388Z,2.73
2018-10-01T22:07:21.477Z,2.77
2018-10-01T22:09:50.442Z,3.10
2018-10-01T22:12:18.813Z,2.53
2018-10-01T22:14:47.212Z,2.97
2018-10-01T22:19:30.345Z,3.00
2018-10-01T22:21:59.260Z,2.83
2018-10-01T22:24:27.792Z,3.10
2018-10-01T22:26:56.037Z,3.00
2018-10-01T22:34:03.395Z,2.80
2018-10-01T22:36:32.060Z,3.00
2018-10-01T22:39:00.500Z,2.70
2018-10-01T22:41:28.772Z,3.10
2018-10-01T22:43:57.328Z,2.60
2018-10-01T22:46:25.699Z,2.50
2018-10-01T22:48:54.033Z,2.77
2018-10-01T22:51:22.484Z,2.90
2018-10-01T22:54:30.911Z,2.40
2018-10-01T22:56:59.279Z,3.10
2018-10-01T22:59:27.586Z,2.77
2018-10-01T23:01:55.992Z,3.20
2018-10-01T23:04:27.484Z,2.80
2018-10-01T23:06:56.003Z,3.17
2018-10-01T23:09:24.332Z,3.03
2018-10-01T23:11:52.650Z,3.93
2018-10-01T23:14:21.370Z,3.13
2018-10-01T23:16:49.616Z,3.07
2018-10-01T23:19:17.863Z,3.40
2018-10-01T23:21:46.110Z,3.03
2018-10-01T23:24:14.413Z,2.73
2018-10-01T23:26:42.709Z,3.00
2018-10-01T23:29:11.007Z,3.90
2018-10-01T23:31:39.295Z,2.73
2018-10-01T23:34:07.687Z,3.30
2018-10-01T23:36:35.907Z,3.00
2018-10-01T23:39:05.077Z,3.13
2018-10-01T23:41:33.335Z,2.97
2018-10-01T23:44:01.824Z,3.40
2018-10-01T23:46:30.086Z,3.63
2018-10-01T23:48:58.346Z,3.37
2018-10-01T23:51:26.609Z,3.27
2018-10-01T23:53:54.819Z,2.97
2018-10-01T23:56:23.045Z,2.90
2018-10-01T23:58:51.256Z,3.07
